Time;durP1;ratioP1;P1;durP2;ratioP2;P2;SDS_P1;SDS_P2;PMS_P1;PMS_P2;Temp;Humidity;BMP_temperature;BMP_pressure;BME280_temperature;BME280_humidity;BME280_pressure;Samples;Min_cycle;Max_cycle;Signal;HPM_P1;HPM_P2
2023/07/04 00:01:49;;;;;;;1.02;0.93;;;;;;;;;;10293761;28;20254;-75
2023/07/04 00:06:50;;;;;;;1.73;1.13;;;;;;;;;;10296582;28;20243;-77
2023/07/04 00:11:51;;;;;;;5.20;1.55;;;;;;;;;;10278158;28;20221;-75
2023/07/04 00:16:52;;;;;;;1.00;0.98;;;;;;;;;;10295969;28;20788;-76
2023/07/04 00:21:53;;;;;;;1.67;1.20;;;;;;;;;;10286792;28;20217;-77
2023/07/04 00:26:56;;;;;;;5.13;0.85;;;;;;;;;;10279490;28;20220;-75
2023/07/04 00:31:58;;;;;;;4.00;0.98;;;;;;;;;;10271484;28;20248;-76
2023/07/04 00:36:59;;;;;;;1.83;0.90;;;;;;;;;;10288523;28;20248;-76
2023/07/04 00:42:01;;;;;;;2.17;1.50;;;;;;;;;;10292470;28;20704;-76
2023/07/04 00:47:09;;;;;;;2.75;1.52;;;;;;;;;;10294452;28;20217;-75
2023/07/04 00:52:12;;;;;;;2.03;1.60;;;;;;;;;;10282065;28;20307;-76
2023/07/04 00:57:14;;;;;;;1.52;1.17;;;;;;;;;;10279449;28;20214;-76
2023/07/04 01:02:16;;;;;;;1.42;1.20;;;;;;;;;;10276899;28;20224;-75
2023/07/04 01:07:25;;;;;;;1.77;1.40;;;;;;;;;;10289618;28;20252;-76
2023/07/04 01:12:28;;;;;;;1.52;1.42;;;;;;;;;;10275963;28;20208;-75
2023/07/04 01:17:30;;;;;;;1.75;1.65;;;;;;;;;;10276289;28;20233;-75
2023/07/04 01:22:44;;;;;;;2.72;1.40;;;;;;;;;;10274038;28;20719;-76
2023/07/04 01:27:45;;;;;;;1.98;1.67;;;;;;;;;;10282034;28;20999;-74
2023/07/04 01:32:52;;;;;;;4.43;2.03;;;;;;;;;;10273602;28;20310;-75
2023/07/04 01:37:54;;;;;;;2.75;1.35;;;;;;;;;;10257092;28;21136;-75
2023/07/04 01:42:55;;;;;;;3.97;1.30;;;;;;;;;;10288435;28;20739;-74
2023/07/04 01:47:56;;;;;;;3.10;1.35;;;;;;;;;;10271249;28;20228;-75
2023/07/04 01:52:57;;;;;;;6.38;1.10;;;;;;;;;;10263968;28;20846;-75
2023/07/04 01:57:58;;;;;;;3.97;1.90;;;;;;;;;;10251985;28;20244;-73
2023/07/04 02:03:00;;;;;;;5.35;2.15;;;;;;;;;;10268664;28;20226;-77
2023/07/04 02:08:01;;;;;;;2.40;1.50;;;;;;;;;;10271863;28;21498;-75
2023/07/04 02:13:02;;;;;;;2.63;1.45;;;;;;;;;;10270516;28;21265;-73
2023/07/04 02:18:03;;;;;;;2.60;1.48;;;;;;;;;;10292866;28;20216;-75
2023/07/04 02:23:04;;;;;;;4.43;1.70;;;;;;;;;;10299612;28;20204;-75
2023/07/04 02:28:05;;;;;;;8.20;1.50;;;;;;;;;;10298569;28;20224;-75
2023/07/04 02:33:06;;;;;;;1.33;0.90;;;;;;;;;;10291631;28;20239;-76
2023/07/04 02:38:07;;;;;;;1.40;1.02;;;;;;;;;;10305328;28;20621;-75
2023/07/04 02:43:08;;;;;;;6.68;1.35;;;;;;;;;;10290748;28;20243;-74
2023/07/04 02:48:09;;;;;;;4.82;1.23;;;;;;;;;;10290184;28;20679;-75
2023/07/04 02:53:11;;;;;;;2.17;1.25;;;;;;;;;;10269847;28;20216;-75
2023/07/04 02:58:12;;;;;;;1.77;1.60;;;;;;;;;;10278621;28;20338;-75
2023/07/04 03:03:13;;;;;;;1.52;1.42;;;;;;;;;;10286592;28;20729;-74
2023/07/04 03:08:15;;;;;;;2.38;1.65;;;;;;;;;;10274248;28;21048;-75
2023/07/04 03:13:17;;;;;;;3.13;1.40;;;;;;;;;;10286198;28;20244;-74
2023/07/04 03:18:19;;;;;;;3.33;1.50;;;;;;;;;;10270599;28;20220;-75
2023/07/04 03:23:21;;;;;;;3.95;1.40;;;;;;;;;;10279470;28;20236;-76
2023/07/04 03:28:23;;;;;;;1.90;1.30;;;;;;;;;;10280050;28;20228;-76
2023/07/04 03:33:25;;;;;;;2.50;1.60;;;;;;;;;;10277887;28;20213;-74
2023/07/04 03:38:26;;;;;;;2.20;1.60;;;;;;;;;;10274851;28;20352;-74
2023/07/04 03:43:27;;;;;;;4.80;1.30;;;;;;;;;;10272384;28;20311;-75
2023/07/04 03:48:28;;;;;;;3.10;1.25;;;;;;;;;;10276291;28;20605;-74
2023/07/04 03:53:30;;;;;;;1.45;1.20;;;;;;;;;;10280147;28;20216;-76
2023/07/04 03:58:32;;;;;;;7.72;1.20;;;;;;;;;;10286986;28;20217;-76
2023/07/04 04:03:38;;;;;;;1.70;0.80;;;;;;;;;;10278553;28;20278;-75
2023/07/04 04:08:39;;;;;;;3.75;1.23;;;;;;;;;;10269033;28;20284;-76
2023/07/04 04:13:40;;;;;;;3.25;0.85;;;;;;;;;;10285389;28;20240;-75
2023/07/04 04:18:41;;;;;;;3.53;1.30;;;;;;;;;;10281032;28;20225;-76
2023/07/04 04:23:42;;;;;;;7.95;1.17;;;;;;;;;;10278871;28;20664;-75
2023/07/04 04:28:43;;;;;;;3.05;1.20;;;;;;;;;;10257998;28;20896;-76
2023/07/04 04:33:44;;;;;;;2.55;0.90;;;;;;;;;;10274663;28;20308;-75
2023/07/04 04:38:45;;;;;;;2.33;0.82;;;;;;;;;;10265186;28;20240;-75
2023/07/04 04:43:49;;;;;;;0.80;0.80;;;;;;;;;;10268603;28;20236;-76
2023/07/04 04:48:51;;;;;;;1.20;0.70;;;;;;;;;;10257650;28;20228;-76
2023/07/04 04:53:52;;;;;;;4.78;0.60;;;;;;;;;;10280612;28;20220;-76
2023/07/04 04:58:53;;;;;;;0.82;0.80;;;;;;;;;;10286553;28;20252;-78
2023/07/04 05:03:55;;;;;;;1.70;0.73;;;;;;;;;;10283930;28;20813;-76
2023/07/04 05:08:56;;;;;;;2.38;0.60;;;;;;;;;;10272401;28;20263;-77
2023/07/04 05:13:57;;;;;;;3.35;0.68;;;;;;;;;;10299841;28;20221;-78
2023/07/04 05:18:58;;;;;;;0.70;0.70;;;;;;;;;;10281716;28;20225;-77
2023/07/04 05:23:59;;;;;;;0.85;0.68;;;;;;;;;;10290021;28;20217;-76
2023/07/04 05:29:02;;;;;;;3.03;0.65;;;;;;;;;;10282054;28;20231;-75
2023/07/04 05:34:03;;;;;;;1.75;0.70;;;;;;;;;;10273760;28;20217;-76
2023/07/04 05:39:06;;;;;;;0.40;0.40;;;;;;;;;;10278558;28;20220;-75
2023/07/04 05:44:08;;;;;;;0.57;0.57;;;;;;;;;;10286706;28;20213;-77
2023/07/04 05:49:09;;;;;;;1.65;0.55;;;;;;;;;;10270668;28;20224;-76
2023/07/04 05:54:10;;;;;;;1.75;0.40;;;;;;;;;;10293272;28;21136;-76
2023/07/04 05:59:11;;;;;;;1.77;0.40;;;;;;;;;;10294025;28;20227;-75
2023/07/04 06:04:12;;;;;;;3.50;0.70;;;;;;;;;;10304426;28;20820;-76
2023/07/04 06:09:14;;;;;;;0.50;0.50;;;;;;;;;;10289006;28;20237;-75
2023/07/04 06:14:17;;;;;;;1.30;0.60;;;;;;;;;;10274601;28;20298;-75
2023/07/04 06:19:19;;;;;;;2.15;0.65;;;;;;;;;;10291376;28;20319;-75
2023/07/04 06:24:20;;;;;;;1.50;0.82;;;;;;;;;;10263011;28;20212;-75
2023/07/04 06:29:21;;;;;;;0.60;0.60;;;;;;;;;;10286252;28;20220;-75
2023/07/04 06:34:22;;;;;;;1.83;0.90;;;;;;;;;;10277068;28;20282;-73
2023/07/04 06:39:23;;;;;;;1.05;0.63;;;;;;;;;;10279229;28;20258;-75
2023/07/04 06:44:24;;;;;;;3.30;0.70;;;;;;;;;;10287236;28;20799;-75
2023/07/04 06:49:25;;;;;;;1.42;0.77;;;;;;;;;;10263828;28;20254;-78
2023/07/04 06:54:26;;;;;;;1.75;0.70;;;;;;;;;;10282255;28;21221;-74
2023/07/04 06:59:27;;;;;;;2.50;0.70;;;;;;;;;;10279773;28;20220;-75
2023/07/04 07:04:28;;;;;;;0.82;0.75;;;;;;;;;;10292158;28;20795;-75
2023/07/04 07:09:30;;;;;;;0.55;0.52;;;;;;;;;;10295517;28;20257;-76
2023/07/04 07:14:31;;;;;;;0.98;0.82;;;;;;;;;;10283761;28;20294;-76
2023/07/04 07:19:33;;;;;;;1.58;0.55;;;;;;;;;;10283027;28;20251;-75
2023/07/04 07:24:34;;;;;;;2.15;0.60;;;;;;;;;;10299318;28;20240;-76
2023/07/04 07:29:35;;;;;;;1.90;0.90;;;;;;;;;;10286022;28;20569;-74
2023/07/04 07:34:36;;;;;;;6.75;0.90;;;;;;;;;;10295153;28;20578;-77
2023/07/04 07:39:37;;;;;;;2.05;0.90;;;;;;;;;;10285210;28;20212;-75
2023/07/04 07:44:38;;;;;;;2.17;1.17;;;;;;;;;;10283804;28;20227;-76
2023/07/04 07:49:39;;;;;;;1.70;0.90;;;;;;;;;;10300502;28;20722;-76
2023/07/04 07:54:40;;;;;;;5.50;1.00;;;;;;;;;;10284046;28;20217;-76
2023/07/04 07:59:41;;;;;;;2.45;1.08;;;;;;;;;;10299388;28;20594;-76
2023/07/04 08:04:42;;;;;;;0.95;0.57;;;;;;;;;;10284855;28;20205;-76
2023/07/04 08:09:43;;;;;;;2.63;0.68;;;;;;;;;;10275072;28;21050;-77
2023/07/04 08:14:45;;;;;;;1.20;0.90;;;;;;;;;;10281195;28;20834;-75
2023/07/04 08:19:46;;;;;;;3.28;0.60;;;;;;;;;;10299542;28;20375;-76
2023/07/04 08:24:47;;;;;;;1.08;0.45;;;;;;;;;;10298411;28;20795;-76
2023/07/04 08:29:48;;;;;;;1.00;0.60;;;;;;;;;;10297938;28;20232;-77
2023/07/04 08:34:49;;;;;;;0.73;0.73;;;;;;;;;;10296993;28;20213;-76
2023/07/04 08:39:50;;;;;;;2.53;0.47;;;;;;;;;;10294569;28;20719;-78
2023/07/04 08:44:54;;;;;;;0.80;0.80;;;;;;;;;;10299887;28;20216;-75
2023/07/04 08:49:58;;;;;;;2.17;0.80;;;;;;;;;;10294217;28;20685;-77
2023/07/04 08:54:59;;;;;;;1.15;0.80;;;;;;;;;;10291706;28;20248;-76
2023/07/04 09:00:04;;;;;;;2.50;1.00;;;;;;;;;;10312876;28;20271;-78
2023/07/04 09:05:24;;;;;;;3.03;1.08;;;;;;;;;;10296777;28;20236;-77
2023/07/04 09:10:33;;;;;;;1.67;1.20;;;;;;;;;;10285402;28;20818;-78
2023/07/04 09:15:35;;;;;;;2.10;1.02;;;;;;;;;;10294137;28;20247;-76
2023/07/04 09:20:41;;;;;;;3.50;1.23;;;;;;;;;;10297922;28;20368;-76
2023/07/04 09:25:42;;;;;;;4.68;0.80;;;;;;;;;;10291874;28;20204;-76
2023/07/04 09:30:43;;;;;;;5.13;1.30;;;;;;;;;;10292685;28;20224;-77
2023/07/04 09:35:44;;;;;;;3.90;1.23;;;;;;;;;;10297882;28;21011;-76
2023/07/04 09:40:50;;;;;;;1.05;1.00;;;;;;;;;;10295991;28;20267;-77
2023/07/04 09:45:51;;;;;;;3.33;0.90;;;;;;;;;;10279257;28;20228;-75
2023/07/04 09:50:53;;;;;;;3.30;1.08;;;;;;;;;;10280735;28;20497;-75
2023/07/04 09:55:57;;;;;;;2.20;0.80;;;;;;;;;;10297037;28;20216;-75
2023/07/04 10:01:06;;;;;;;4.10;0.90;;;;;;;;;;10297678;28;20234;-76
2023/07/04 10:06:09;;;;;;;1.92;0.50;;;;;;;;;;10294848;28;20335;-73
2023/07/04 10:11:10;;;;;;;2.50;0.60;;;;;;;;;;10289217;28;20224;-79
2023/07/04 10:16:19;;;;;;;0.70;0.52;;;;;;;;;;10286962;28;20702;-78
2023/07/04 10:21:20;;;;;;;1.30;0.73;;;;;;;;;;10263059;28;20234;-74
2023/07/04 10:26:21;;;;;;;1.42;0.50;;;;;;;;;;10290296;28;20220;-74
2023/07/04 10:31:22;;;;;;;1.25;0.68;;;;;;;;;;10278735;28;20219;-75
2023/07/04 10:36:31;;;;;;;0.70;0.70;;;;;;;;;;10269257;28;20960;-75
2023/07/04 10:41:40;;;;;;;2.67;0.57;;;;;;;;;;10283651;28;20224;-74
2023/07/04 10:46:43;;;;;;;3.03;0.80;;;;;;;;;;10282621;28;20344;-75
2023/07/04 10:51:47;;;;;;;0.93;0.70;;;;;;;;;;10299541;28;20310;-76
2023/07/04 10:56:50;;;;;;;3.15;0.60;;;;;;;;;;10282854;28;20560;-74
2023/07/04 11:01:54;;;;;;;0.70;0.70;;;;;;;;;;10298619;28;20251;-75
2023/07/04 11:06:58;;;;;;;0.82;0.80;;;;;;;;;;10300975;28;20613;-75
2023/07/04 11:12:04;;;;;;;1.15;0.65;;;;;;;;;;10289263;28;20698;-75
2023/07/04 11:17:07;;;;;;;0.50;0.50;;;;;;;;;;10300538;28;20300;-77
2023/07/04 11:22:08;;;;;;;0.73;0.68;;;;;;;;;;10285442;28;20724;-77
2023/07/04 11:27:11;;;;;;;0.85;0.77;;;;;;;;;;10298034;28;20274;-78
2023/07/04 11:32:16;;;;;;;1.38;0.80;;;;;;;;;;10290129;28;20271;-79
2023/07/04 11:37:22;;;;;;;0.60;0.60;;;;;;;;;;10290013;28;20217;-75
2023/07/04 11:42:44;;;;;;;1.35;0.80;;;;;;;;;;10284202;28;20287;-76
2023/07/04 11:47:50;;;;;;;2.75;0.65;;;;;;;;;;10296070;28;20500;-77
2023/07/04 11:52:54;;;;;;;0.70;0.70;;;;;;;;;;10299137;28;20224;-77
2023/07/04 11:58:07;;;;;;;1.55;0.80;;;;;;;;;;10298277;28;20224;-76
2023/07/04 12:03:17;;;;;;;1.10;0.73;;;;;;;;;;10300311;28;20608;-76
2023/07/04 12:08:22;;;;;;;0.73;0.60;;;;;;;;;;10283934;28;20721;-77
2023/07/04 12:13:23;;;;;;;2.25;0.80;;;;;;;;;;10297661;28;20223;-75
2023/07/04 12:18:26;;;;;;;3.72;0.60;;;;;;;;;;10280978;28;20332;-78
2023/07/04 12:23:27;;;;;;;0.68;0.68;;;;;;;;;;10284857;28;20238;-78
2023/07/04 12:28:29;;;;;;;0.50;0.50;;;;;;;;;;10287209;28;20225;-77
2023/07/04 12:33:31;;;;;;;2.60;0.88;;;;;;;;;;10286363;28;20217;-76
2023/07/04 12:38:33;;;;;;;1.33;1.00;;;;;;;;;;10282387;28;20216;-74
2023/07/04 12:43:34;;;;;;;0.93;0.93;;;;;;;;;;10290873;28;20950;-75
2023/07/04 12:48:36;;;;;;;0.57;0.57;;;;;;;;;;10290698;28;20217;-75
2023/07/04 12:53:38;;;;;;;4.25;1.20;;;;;;;;;;10291261;28;20221;-75
2023/07/04 12:58:43;;;;;;;1.85;0.95;;;;;;;;;;10282730;28;20336;-76
2023/07/04 13:03:44;;;;;;;1.00;0.80;;;;;;;;;;10275858;28;20224;-75
2023/07/04 13:08:48;;;;;;;0.95;0.95;;;;;;;;;;10269246;28;20234;-75
2023/07/04 13:13:50;;;;;;;1.33;0.90;;;;;;;;;;10287731;28;20216;-75
2023/07/04 13:18:51;;;;;;;1.67;1.10;;;;;;;;;;10299284;28;20320;-75
2023/07/04 13:23:52;;;;;;;1.77;0.90;;;;;;;;;;10300101;28;20213;-77
2023/07/04 13:28:55;;;;;;;1.83;1.35;;;;;;;;;;10299060;28;20759;-75
2023/07/04 13:33:57;;;;;;;2.70;0.80;;;;;;;;;;10294825;28;20335;-77
2023/07/04 13:38:58;;;;;;;1.40;1.40;;;;;;;;;;10294881;28;20268;-77
2023/07/04 13:43:59;;;;;;;1.02;0.88;;;;;;;;;;10291200;28;20433;-76
2023/07/04 13:49:00;;;;;;;3.22;1.08;;;;;;;;;;10295190;28;20224;-77
2023/07/04 13:54:04;;;;;;;1.33;1.33;;;;;;;;;;10297265;28;20603;-76
2023/07/04 13:59:05;;;;;;;1.88;1.17;;;;;;;;;;10276803;28;20312;-77
2023/07/04 14:04:06;;;;;;;1.13;1.02;;;;;;;;;;10295581;28;20730;-76
2023/07/04 14:09:07;;;;;;;5.18;0.90;;;;;;;;;;10293426;28;20259;-78
2023/07/04 14:14:08;;;;;;;4.03;1.02;;;;;;;;;;10272491;28;20392;-76
2023/07/04 14:19:10;;;;;;;1.95;1.02;;;;;;;;;;10270222;28;20219;-77
2023/07/04 14:24:11;;;;;;;2.58;1.30;;;;;;;;;;10270664;28;20827;-78
2023/07/04 14:29:12;;;;;;;3.78;1.20;;;;;;;;;;10260216;28;20224;-78
2023/07/04 14:34:13;;;;;;;1.48;1.30;;;;;;;;;;10270856;28;20208;-76
2023/07/04 14:39:14;;;;;;;3.50;1.27;;;;;;;;;;10262500;28;20874;-77
2023/07/04 14:44:15;;;;;;;1.45;1.30;;;;;;;;;;10257820;28;20209;-76
2023/07/04 14:49:16;;;;;;;1.33;1.23;;;;;;;;;;10277893;28;20304;-77
2023/07/04 14:54:17;;;;;;;2.97;1.45;;;;;;;;;;10262317;28;20239;-76
2023/07/04 14:59:18;;;;;;;2.75;1.15;;;;;;;;;;10264580;28;20877;-75
2023/07/04 15:04:19;;;;;;;1.65;1.13;;;;;;;;;;10278954;28;20275;-78
2023/07/04 15:09:21;;;;;;;0.90;0.90;;;;;;;;;;10283546;28;20244;-77
2023/07/04 15:14:22;;;;;;;1.00;1.00;;;;;;;;;;10270272;28;20247;-77
2023/07/04 15:19:24;;;;;;;2.22;0.70;;;;;;;;;;10288217;28;20222;-77
2023/07/04 15:24:25;;;;;;;3.13;0.70;;;;;;;;;;10288734;28;20206;-78
2023/07/04 15:29:26;;;;;;;1.35;1.00;;;;;;;;;;10273087;28;21006;-78
2023/07/04 15:34:28;;;;;;;3.47;0.88;;;;;;;;;;10285967;28;20212;-77
2023/07/04 15:39:29;;;;;;;0.63;0.63;;;;;;;;;;10287164;28;20323;-79
2023/07/04 15:44:30;;;;;;;1.15;0.70;;;;;;;;;;10289316;28;20599;-79
2023/07/04 15:49:31;;;;;;;1.23;0.73;;;;;;;;;;10296936;28;20228;-77
2023/07/04 15:54:32;;;;;;;2.47;0.90;;;;;;;;;;10295070;28;20335;-80
2023/07/04 15:59:33;;;;;;;1.20;1.00;;;;;;;;;;10283092;28;20244;-79
2023/07/04 16:04:35;;;;;;;2.25;0.90;;;;;;;;;;10297982;28;20296;-81
2023/07/04 16:09:36;;;;;;;1.05;0.95;;;;;;;;;;10298613;28;20787;-78
2023/07/04 16:14:38;;;;;;;1.25;0.85;;;;;;;;;;10304997;28;20224;-78
2023/07/04 16:19:39;;;;;;;10.05;0.90;;;;;;;;;;10290518;28;20316;-79
2023/07/04 16:24:40;;;;;;;1.63;0.85;;;;;;;;;;10278390;28;20209;-80
2023/07/04 16:29:41;;;;;;;1.60;0.98;;;;;;;;;;10292691;28;20224;-81
2023/07/04 16:34:43;;;;;;;2.38;1.02;;;;;;;;;;10276351;28;20224;-77
2023/07/04 16:39:44;;;;;;;1.05;0.80;;;;;;;;;;10290790;28;20232;-78
2023/07/04 16:44:45;;;;;;;1.10;0.70;;;;;;;;;;10287195;28;20224;-77
2023/07/04 16:49:46;;;;;;;3.13;1.00;;;;;;;;;;10280665;28;20681;-77
2023/07/04 16:54:47;;;;;;;1.55;0.88;;;;;;;;;;10285029;28;20227;-80
2023/07/04 16:59:48;;;;;;;1.02;0.93;;;;;;;;;;10289552;28;20220;-79
2023/07/04 17:04:49;;;;;;;2.20;0.88;;;;;;;;;;10295347;28;20703;-76
2023/07/04 17:09:50;;;;;;;0.95;0.75;;;;;;;;;;10300671;28;20809;-75
2023/07/04 17:14:52;;;;;;;1.65;0.60;;;;;;;;;;10300038;28;20213;-79
2023/07/04 17:19:53;;;;;;;4.93;0.82;;;;;;;;;;10294222;28;20307;-76
2023/07/04 17:24:54;;;;;;;1.17;0.93;;;;;;;;;;10273542;28;20221;-79
2023/07/04 17:29:55;;;;;;;0.80;0.80;;;;;;;;;;10274220;28;20729;-77
2023/07/04 17:34:56;;;;;;;0.90;0.85;;;;;;;;;;10255102;28;20217;-76
2023/07/04 17:39:57;;;;;;;3.72;0.70;;;;;;;;;;10278822;28;20247;-77
2023/07/04 17:44:59;;;;;;;1.17;0.60;;;;;;;;;;10251570;28;20291;-79
2023/07/04 17:50:00;;;;;;;1.10;0.77;;;;;;;;;;10269774;28;20807;-77
2023/07/04 17:55:01;;;;;;;2.28;0.85;;;;;;;;;;10269796;28;20227;-77
2023/07/04 18:00:02;;;;;;;3.20;1.10;;;;;;;;;;10269639;28;20717;-76
2023/07/04 18:05:05;;;;;;;4.22;0.70;;;;;;;;;;10287344;28;20211;-75
2023/07/04 18:10:06;;;;;;;4.60;0.82;;;;;;;;;;10265209;28;20228;-77
2023/07/04 18:15:08;;;;;;;1.20;0.80;;;;;;;;;;10283826;28;20193;-80
2023/07/04 18:20:10;;;;;;;4.50;1.00;;;;;;;;;;10286437;28;20212;-78
2023/07/04 18:25:11;;;;;;;0.77;0.77;;;;;;;;;;10284598;28;20189;-74
2023/07/04 18:30:12;;;;;;;3.42;1.30;;;;;;;;;;10288768;28;20214;-76
2023/07/04 18:35:13;;;;;;;3.83;1.10;;;;;;;;;;10284905;28;20203;-76
2023/07/04 18:40:14;;;;;;;2.03;1.02;;;;;;;;;;10278271;28;20235;-76
2023/07/04 18:45:15;;;;;;;1.98;1.08;;;;;;;;;;10281692;28;20219;-76
2023/07/04 18:50:16;;;;;;;5.15;1.00;;;;;;;;;;10270636;28;20787;-77
2023/07/04 18:55:17;;;;;;;1.75;1.05;;;;;;;;;;10280511;28;20780;-75
2023/07/04 19:00:18;;;;;;;1.58;0.80;;;;;;;;;;10286097;28;20270;-75
2023/07/04 19:05:19;;;;;;;2.80;1.30;;;;;;;;;;10288301;28;20189;-76
2023/07/04 19:10:21;;;;;;;3.00;0.98;;;;;;;;;;10288212;28;20521;-76
2023/07/04 19:15:22;;;;;;;2.22;1.20;;;;;;;;;;10282079;28;20234;-77
2023/07/04 19:20:23;;;;;;;1.10;0.98;;;;;;;;;;10294392;28;20225;-77
2023/07/04 19:25:24;;;;;;;2.55;1.10;;;;;;;;;;10294132;28;20217;-78
2023/07/04 19:30:25;;;;;;;1.33;1.13;;;;;;;;;;10277569;28;20224;-77
2023/07/04 19:35:26;;;;;;;4.25;3.15;;;;;;;;;;10280183;28;20213;-77
2023/07/04 19:40:27;;;;;;;3.35;1.77;;;;;;;;;;10286145;28;20687;-76
2023/07/04 19:45:28;;;;;;;2.10;1.10;;;;;;;;;;10295572;28;20221;-76
2023/07/04 19:50:31;;;;;;;1.23;1.13;;;;;;;;;;10279847;28;20236;-78
2023/07/04 19:55:35;;;;;;;1.23;1.17;;;;;;;;;;10275029;28;20213;-76
2023/07/04 20:00:36;;;;;;;2.25;1.23;;;;;;;;;;10298127;28;20237;-76
2023/07/04 20:05:36;;;;;;;2.47;1.42;;;;;;;;;;10286737;28;20217;-77
2023/07/04 20:10:38;;;;;;;1.80;1.50;;;;;;;;;;10290597;28;20248;-77
2023/07/04 20:15:42;;;;;;;1.73;1.63;;;;;;;;;;10277420;28;20702;-75
2023/07/04 20:20:43;;;;;;;1.88;1.20;;;;;;;;;;10301394;28;20217;-72
2023/07/04 20:25:45;;;;;;;1.40;1.30;;;;;;;;;;10293144;28;20296;-75
2023/07/04 20:30:46;;;;;;;1.00;1.00;;;;;;;;;;10300954;28;20216;-75
2023/07/04 20:35:47;;;;;;;1.65;1.20;;;;;;;;;;10293545;28;20266;-75
2023/07/04 20:40:48;;;;;;;6.03;1.40;;;;;;;;;;10281107;28;20765;-75
2023/07/04 20:45:54;;;;;;;2.42;1.23;;;;;;;;;;10288475;28;20215;-75
2023/07/04 20:50:56;;;;;;;1.35;1.20;;;;;;;;;;10297741;28;20222;-77
2023/07/04 20:55:57;;;;;;;2.25;1.15;;;;;;;;;;10283662;28;20465;-76
2023/07/04 21:00:58;;;;;;;1.85;1.30;;;;;;;;;;10284307;28;20228;-78
2023/07/04 21:06:03;;;;;;;7.20;1.13;;;;;;;;;;10298111;28;20259;-76
2023/07/04 21:11:05;;;;;;;2.25;1.27;;;;;;;;;;10293111;28;20231;-76
2023/07/04 21:16:07;;;;;;;5.20;2.08;;;;;;;;;;10283463;28;20216;-76
2023/07/04 21:21:09;;;;;;;1.83;1.40;;;;;;;;;;10283942;28;20225;-77
2023/07/04 21:26:11;;;;;;;3.85;1.80;;;;;;;;;;10280617;28;20224;-76
2023/07/04 21:31:12;;;;;;;1.70;1.60;;;;;;;;;;10280600;28;20304;-75
2023/07/04 21:36:13;;;;;;;5.07;1.35;;;;;;;;;;10276709;28;20298;-75
2023/07/04 21:41:16;;;;;;;1.25;1.15;;;;;;;;;;10295287;28;20220;-76
2023/07/04 21:46:21;;;;;;;1.58;1.38;;;;;;;;;;10282853;28;20315;-76
2023/07/04 21:51:22;;;;;;;2.22;1.80;;;;;;;;;;10291213;28;20255;-76
2023/07/04 21:56:23;;;;;;;1.17;1.17;;;;;;;;;;10279748;28;20224;-75
2023/07/04 22:01:24;;;;;;;1.85;1.40;;;;;;;;;;10278681;28;20319;-77
2023/07/04 22:06:26;;;;;;;1.83;1.73;;;;;;;;;;10267278;28;20236;-76
2023/07/04 22:11:27;;;;;;;1.00;1.00;;;;;;;;;;10278575;28;20224;-74
2023/07/04 22:16:28;;;;;;;1.25;1.25;;;;;;;;;;10294473;28;20220;-73
2023/07/04 22:21:29;;;;;;;1.30;1.23;;;;;;;;;;10291818;28;20220;-76
2023/07/04 22:26:30;;;;;;;2.75;1.45;;;;;;;;;;10295205;28;20224;-75
2023/07/04 22:31:31;;;;;;;2.58;1.15;;;;;;;;;;10281543;28;20227;-75
2023/07/04 22:36:32;;;;;;;1.20;1.10;;;;;;;;;;10264062;28;20217;-77
2023/07/04 22:41:33;;;;;;;1.45;1.25;;;;;;;;;;10281926;28;20875;-76
2023/07/04 22:46:34;;;;;;;2.08;1.25;;;;;;;;;;10287603;28;20301;-76
2023/07/04 22:51:35;;;;;;;2.13;1.10;;;;;;;;;;10301202;28;20360;-76
2023/07/04 22:56:36;;;;;;;1.65;1.05;;;;;;;;;;10282431;28;20392;-76
2023/07/04 23:01:37;;;;;;;1.50;1.48;;;;;;;;;;10289274;28;21037;-76
2023/07/04 23:06:38;;;;;;;2.70;1.42;;;;;;;;;;10291672;28;20774;-75
2023/07/04 23:11:39;;;;;;;2.00;1.67;;;;;;;;;;10282183;28;20219;-73
2023/07/04 23:16:40;;;;;;;2.22;1.15;;;;;;;;;;10290826;28;20205;-74
2023/07/04 23:21:41;;;;;;;1.30;1.30;;;;;;;;;;10302692;28;20236;-76
2023/07/04 23:26:42;;;;;;;1.33;1.33;;;;;;;;;;10284796;28;20738;-75
2023/07/04 23:31:43;;;;;;;1.52;1.42;;;;;;;;;;10286334;28;20793;-75
2023/07/04 23:36:45;;;;;;;5.05;1.25;;;;;;;;;;10285617;28;20721;-75
2023/07/04 23:41:46;;;;;;;1.98;1.30;;;;;;;;;;10275507;28;20221;-76
2023/07/04 23:46:47;;;;;;;4.53;1.80;;;;;;;;;;10273189;28;21130;-77
2023/07/04 23:51:48;;;;;;;1.45;1.35;;;;;;;;;;10301781;28;20209;-77
2023/07/04 23:56:49;;;;;;;1.52;1.20;;;;;;;;;;10278364;28;20250;-76
